Time;durP1;ratioP1;P1;durP2;ratioP2;P2;SDS_P1;SDS_P2;PMS_P1;PMS_P2;Temp;Humidity;BMP_temperature;BMP_pressure;BME280_temperature;BME280_humidity;BME280_pressure;Samples;Min_cycle;Max_cycle;Signal;HPM_P1;HPM_P2
2023/01/05 00:01:14;;;;;;;0.35;0.30;;;;;;;6.04;100.00;99331.69;4970869;28;20053;-73
2023/01/05 00:03:43;;;;;;;0.60;0.40;;;;;;;6.11;100.00;99330.13;4975154;28;20059;-72
2023/01/05 00:06:20;;;;;;;1.38;0.52;;;;;;;6.10;100.00;99323.28;4971838;28;20053;-72
2023/01/05 00:08:56;;;;;;;0.63;0.30;;;;;;;6.11;100.00;99307.88;4969097;28;20134;-73
2023/01/05 00:22:33;;;;;;;0.47;0.38;;;;;;;6.14;100.00;99269.47;4969500;28;20133;-77
2023/01/05 00:25:05;;;;;;;0.20;0.10;;;;;;;6.19;100.00;99260.16;4968233;28;20054;-74
2023/01/05 00:27:34;;;;;;;0.93;0.50;;;;;;;6.21;100.00;99260.19;4971009;28;20065;-74
2023/01/05 00:30:03;;;;;;;0.20;0.10;;;;;;;6.21;100.00;99247.34;4968422;28;20102;-75
2023/01/05 00:32:31;;;;;;;0.85;0.22;;;;;;;6.19;100.00;99243.88;4970893;28;20051;-75
2023/01/05 00:35:00;;;;;;;0.28;0.20;;;;;;;6.18;100.00;99253.25;4967535;28;20051;-73
2023/01/05 00:37:32;;;;;;;0.63;0.35;;;;;;;6.18;100.00;99237.00;4963086;28;20206;-75
2023/01/05 00:40:00;;;;;;;0.30;0.22;;;;;;;6.17;100.00;99230.13;4964823;28;20157;-73
2023/01/05 00:42:31;;;;;;;0.10;0.10;;;;;;;6.19;100.00;99228.47;4969578;28;20145;-74
2023/01/05 00:44:59;;;;;;;0.50;0.30;;;;;;;6.20;100.00;99222.47;4969951;28;20143;-76
2023/01/05 00:47:27;;;;;;;0.52;0.40;;;;;;;6.20;100.00;99218.22;4966846;28;20074;-74
2023/01/05 00:49:56;;;;;;;0.30;0.30;;;;;;;6.23;100.00;99219.97;4969602;28;20685;-74
2023/01/05 00:52:24;;;;;;;0.47;0.22;;;;;;;6.26;100.00;99205.50;4968631;28;20082;-74
2023/01/05 00:54:53;;;;;;;0.15;0.15;;;;;;;6.28;100.00;99203.84;4974137;28;20578;-76
2023/01/05 00:57:21;;;;;;;0.93;0.30;;;;;;;6.28;100.00;99187.56;4969038;28;20158;-76
2023/01/05 00:59:51;;;;;;;0.52;0.20;;;;;;;6.25;100.00;99183.25;4967334;28;20039;-75
2023/01/05 01:02:20;;;;;;;0.30;0.20;;;;;;;6.25;100.00;99166.94;4969342;28;20114;-75
2023/01/05 01:04:48;;;;;;;0.73;0.40;;;;;;;6.31;100.00;99156.81;4969345;28;20086;-74
2023/01/05 01:07:17;;;;;;;0.35;0.28;;;;;;;6.38;100.00;99156.09;4969911;28;20051;-74
2023/01/05 01:09:45;;;;;;;0.17;0.10;;;;;;;6.41;100.00;99158.72;4973083;28;20047;-74
2023/01/05 01:12:14;;;;;;;0.40;0.20;;;;;;;6.42;100.00;99151.91;4971737;28;20129;-73
2023/01/05 01:14:42;;;;;;;0.57;0.20;;;;;;;6.47;100.00;99143.44;4975912;28;20126;-73
2023/01/05 01:17:12;;;;;;;0.55;0.17;;;;;;;6.53;100.00;99146.94;4974661;28;20128;-77
2023/01/05 01:19:40;;;;;;;0.10;0.10;;;;;;;6.55;100.00;99127.28;4969816;28;20042;-78
2023/01/05 01:22:09;;;;;;;0.15;0.10;;;;;;;6.57;100.00;99115.34;4972611;28;20051;-75
2023/01/05 01:24:37;;;;;;;0.40;0.20;;;;;;;6.64;100.00;99124.91;4969116;28;20078;-75
2023/01/05 01:27:06;;;;;;;0.52;0.30;;;;;;;6.64;100.00;99112.94;4970680;28;20093;-74
2023/01/05 01:29:34;;;;;;;0.70;0.20;;;;;;;6.60;100.00;99097.44;4973081;28;20046;-73
2023/01/05 01:32:03;;;;;;;0.20;0.20;;;;;;;6.69;100.00;99097.59;4969068;28;20137;-75
2023/01/05 01:34:33;;;;;;;1.42;0.40;;;;;;;6.70;100.00;99096.75;4969335;28;20202;-74
2023/01/05 01:37:01;;;;;;;1.30;0.17;;;;;;;6.70;100.00;99083.91;4971637;28;20108;-77
2023/01/05 01:39:30;;;;;;;0.20;0.10;;;;;;;6.68;100.00;99098.44;4974677;28;20106;-80
2023/01/05 01:41:58;;;;;;;1.15;0.38;;;;;;;6.67;100.00;99095.00;4971222;28;20485;-74
2023/01/05 01:44:53;;;;;;;1.10;0.57;;;;;;;6.71;100.00;99091.66;4966316;28;20126;-75
2023/01/05 01:47:32;;;;;;;0.40;0.20;;;;;;;6.68;100.00;99091.56;4970295;28;20058;-82
2023/01/05 01:50:07;;;;;;;0.68;0.30;;;;;;;6.67;100.00;99069.28;4972925;28;20068;-74
2023/01/05 01:52:36;;;;;;;1.20;0.40;;;;;;;6.72;100.00;99074.50;4971293;28;20169;-82
2023/01/05 01:55:06;;;;;;;1.13;0.25;;;;;;;6.75;100.00;99064.28;4974087;28;20117;-72
2023/01/05 01:57:42;;;;;;;0.80;0.30;;;;;;;6.77;100.00;99070.31;4978922;28;20559;-78
2023/01/05 02:00:13;;;;;;;0.13;0.10;;;;;;;6.72;100.00;99077.94;4973606;28;20055;-78
2023/01/05 02:02:41;;;;;;;0.63;0.20;;;;;;;6.76;100.00;99078.00;4980546;28;20072;-77
2023/01/05 02:05:13;;;;;;;0.85;0.32;;;;;;;6.76;100.00;99067.72;4967720;28;20057;-75
2023/01/05 02:07:45;;;;;;;0.95;0.20;;;;;;;6.71;100.00;99065.94;4978471;28;20423;-78
2023/01/05 02:10:15;;;;;;;1.90;0.25;;;;;;;6.74;100.00;99051.44;4983837;28;20121;-74
2023/01/05 02:12:59;;;;;;;0.65;0.38;;;;;;;6.71;100.00;99063.38;4993297;28;20100;-77
2023/01/05 02:15:39;;;;;;;0.63;0.40;;;;;;;6.75;100.00;99068.56;4982330;28;20129;-77
2023/01/05 02:18:21;;;;;;;0.30;0.30;;;;;;;6.77;100.00;99065.19;4980979;28;20054;-75
2023/01/05 02:21:20;;;;;;;0.77;0.30;;;;;;;6.80;100.00;99057.50;4980320;28;20133;-76
2023/01/05 02:24:27;;;;;;;0.40;0.20;;;;;;;6.79;100.00;99035.22;4971758;28;20718;-74
2023/01/05 02:27:33;;;;;;;0.28;0.15;;;;;;;6.82;100.00;99042.97;4988756;28;20565;-74
2023/01/05 02:30:47;;;;;;;1.23;0.20;;;;;;;6.84;100.00;99056.72;4987818;28;20557;-74
2023/01/05 02:33:26;;;;;;;4.20;0.63;;;;;;;6.84;100.00;99056.72;4987628;28;20133;-74
2023/01/05 02:36:02;;;;;;;0.50;0.32;;;;;;;6.88;100.00;99053.38;4991103;28;20122;-74
2023/01/05 02:38:39;;;;;;;0.45;0.20;;;;;;;6.92;100.00;99055.16;4989678;28;20136;-75
2023/01/05 02:41:12;;;;;;;0.60;0.40;;;;;;;6.94;100.00;99047.50;4987335;28;20088;-74
2023/01/05 02:43:43;;;;;;;0.35;0.22;;;;;;;6.91;100.00;99035.41;4986597;28;20092;-75
2023/01/05 02:46:13;;;;;;;0.47;0.45;;;;;;;6.95;100.00;99022.63;4987947;28;20129;-75
2023/01/05 02:48:44;;;;;;;0.50;0.20;;;;;;;6.93;98.44;99028.59;4983170;28;20048;-73
2023/01/05 02:51:19;;;;;;;0.17;0.13;;;;;;;6.93;100.00;99020.88;4988999;28;20046;-75
2023/01/05 02:53:52;;;;;;;0.25;0.20;;;;;;;6.98;100.00;99017.53;4980693;28;20942;-76
2023/01/05 02:56:27;;;;;;;0.60;0.40;;;;;;;6.88;98.60;98993.38;4978627;28;20050;-75
2023/01/05 02:58:59;;;;;;;0.20;0.20;;;;;;;7.02;98.52;99007.31;4982612;28;20143;-78
2023/01/05 03:01:33;;;;;;;1.02;0.30;;;;;;;7.06;98.55;99000.53;4989545;28;20802;-76
2023/01/05 03:04:06;;;;;;;0.10;0.10;;;;;;;7.06;97.72;98965.38;4986298;28;20173;-76
2023/01/05 03:06:45;;;;;;;0.20;0.15;;;;;;;7.09;96.81;98969.69;4980941;28;20412;-76
2023/01/05 03:09:15;;;;;;;0.22;0.17;;;;;;;7.08;96.28;98973.13;4988972;28;20124;-78
2023/01/05 03:14:42;;;;;;;0.40;0.20;;;;;;;7.16;96.98;98979.22;4991546;28;20076;-79
2023/01/05 03:17:18;;;;;;;0.60;0.20;;;;;;;7.19;96.38;98976.69;4992251;28;20049;-79
2023/01/05 03:19:49;;;;;;;0.10;0.10;;;;;;;7.24;95.42;98972.50;4995916;28;20452;-83
2023/01/05 03:36:27;;;;;;;1.42;0.40;;;;;;;7.57;90.57;98968.66;4987467;28;19929;-75
2023/01/05 03:38:59;;;;;;;0.40;0.30;;;;;;;7.60;89.96;98972.97;4989318;28;20125;-82
2023/01/05 03:41:28;;;;;;;1.10;0.30;;;;;;;7.66;91.10;98968.75;4993335;28;20061;-78
2023/01/05 03:43:57;;;;;;;0.43;0.40;;;;;;;7.71;90.53;98961.94;4993690;28;20053;-82
2023/01/05 03:46:26;;;;;;;0.52;0.28;;;;;;;7.74;90.73;98972.31;4990194;28;20145;-76
2023/01/05 03:48:56;;;;;;;0.80;0.30;;;;;;;7.76;89.42;98959.44;4989902;28;20439;-78
2023/01/05 03:51:25;;;;;;;0.20;0.20;;;;;;;7.80;90.84;98965.50;4993233;28;20403;-78
2023/01/05 03:53:53;;;;;;;0.95;0.30;;;;;;;7.83;89.74;98960.38;4987707;28;20038;-78
2023/01/05 03:56:22;;;;;;;1.42;0.50;;;;;;;7.85;88.77;98948.38;4986715;28;20050;-74
2023/01/05 03:58:50;;;;;;;0.30;0.30;;;;;;;7.86;88.79;98939.81;4990225;28;20104;-74
2023/01/05 04:01:18;;;;;;;0.10;0.10;;;;;;;7.87;88.87;98932.09;4988582;28;20564;-75
2023/01/05 04:03:47;;;;;;;0.17;0.17;;;;;;;7.90;86.38;98936.41;4989887;28;20042;-80
2023/01/05 04:06:17;;;;;;;0.70;0.10;;;;;;;7.97;86.10;98944.25;4988783;28;20046;-77
2023/01/05 04:08:46;;;;;;;0.30;0.20;;;;;;;8.05;85.18;98925.44;4991029;28;20058;-75
2023/01/05 04:11:16;;;;;;;0.10;0.10;;;;;;;8.05;84.21;98931.44;4992926;28;20038;-77
2023/01/05 04:13:45;;;;;;;0.98;0.20;;;;;;;8.10;85.47;98929.75;4990184;28;20078;-77
2023/01/05 04:16:14;;;;;;;0.40;0.28;;;;;;;8.14;85.86;98916.06;4989183;28;20050;-74
2023/01/05 04:18:42;;;;;;;0.30;0.20;;;;;;;8.11;84.97;98916.06;4986599;28;20058;-76
2023/01/05 04:21:11;;;;;;;0.38;0.35;;;;;;;8.11;87.10;98928.06;4987275;28;20662;-79
2023/01/05 04:23:41;;;;;;;0.63;0.40;;;;;;;8.11;85.16;98915.19;4988766;28;20097;-78
2023/01/05 04:26:10;;;;;;;0.10;0.10;;;;;;;8.11;84.87;98921.19;4987195;28;20053;-75
2023/01/05 04:28:38;;;;;;;1.40;0.43;;;;;;;8.11;84.80;98910.91;4988229;28;20042;-80
2023/01/05 04:31:06;;;;;;;0.65;0.40;;;;;;;8.11;85.10;98905.75;4990205;28;20066;-80
2023/01/05 04:33:35;;;;;;;0.65;0.40;;;;;;;8.08;86.51;98897.97;4988442;28;20069;-77
2023/01/05 04:36:04;;;;;;;0.20;0.20;;;;;;;8.06;85.03;98886.78;4987886;28;20058;-78
2023/01/05 04:38:32;;;;;;;1.17;0.25;;;;;;;8.04;85.97;98888.50;4983226;28;20141;-82
2023/01/05 04:41:02;;;;;;;0.10;0.10;;;;;;;8.01;84.46;98896.19;4987364;28;20073;-77
2023/01/05 04:43:31;;;;;;;0.20;0.10;;;;;;;8.01;85.60;98898.75;4986289;28;20053;-72
2023/01/05 04:46:00;;;;;;;0.52;0.20;;;;;;;8.00;85.12;98881.59;4988847;28;20712;-72
2023/01/05 04:48:30;;;;;;;0.38;0.30;;;;;;;7.98;83.98;98884.16;4989537;28;20048;-73
2023/01/05 04:50:59;;;;;;;0.20;0.13;;;;;;;7.99;85.92;98872.13;4988841;28;20403;-72
2023/01/05 04:53:28;;;;;;;0.55;0.38;;;;;;;7.98;84.67;98883.28;4989434;28;20234;-73
2023/01/05 04:55:57;;;;;;;1.35;0.30;;;;;;;8.01;83.86;98877.31;4990120;28;20116;-76
2023/01/05 04:58:27;;;;;;;0.50;0.15;;;;;;;8.03;84.89;98861.00;4990371;28;20053;-77
2023/01/05 05:00:56;;;;;;;1.20;0.30;;;;;;;8.05;82.88;98873.91;4987800;28;20084;-76
2023/01/05 05:03:24;;;;;;;0.32;0.22;;;;;;;8.03;83.61;98883.34;4990053;28;20054;-77
2023/01/05 05:05:53;;;;;;;0.57;0.25;;;;;;;8.03;84.42;98880.75;4989689;28;20056;-77
2023/01/05 05:08:21;;;;;;;1.05;0.30;;;;;;;8.01;84.14;98856.69;4991701;28;20402;-78
2023/01/05 05:10:50;;;;;;;0.38;0.30;;;;;;;8.00;84.37;98850.69;4989146;28;20436;-77
2023/01/05 05:13:19;;;;;;;0.28;0.20;;;;;;;7.97;84.19;98850.66;4987606;28;20046;-78
2023/01/05 05:15:49;;;;;;;0.47;0.40;;;;;;;7.86;83.39;98841.97;4985131;28;20054;-78
2023/01/05 05:18:18;;;;;;;0.70;0.30;;;;;;;7.92;83.45;98858.31;4984927;28;20520;-75
2023/01/05 05:20:50;;;;;;;1.55;0.40;;;;;;;7.89;83.84;98837.72;4985243;28;20054;-74
2023/01/05 05:23:19;;;;;;;0.93;0.32;;;;;;;7.86;85.27;98823.97;4988071;28;20620;-76
2023/01/05 05:25:51;;;;;;;0.75;0.40;;;;;;;7.84;83.43;98823.06;4986112;28;20506;-74
2023/01/05 05:28:21;;;;;;;0.20;0.20;;;;;;;7.87;84.36;98825.66;4987687;28;20567;-74
2023/01/05 05:30:52;;;;;;;0.32;0.32;;;;;;;7.89;83.65;98822.25;4981742;28;20042;-76
2023/01/05 05:33:20;;;;;;;0.30;0.30;;;;;;;7.90;83.88;98818.84;4986975;28;20086;-77
2023/01/05 05:35:49;;;;;;;1.17;0.30;;;;;;;7.85;83.65;98802.47;4986084;28;20061;-76
2023/01/05 05:38:17;;;;;;;0.50;0.38;;;;;;;7.92;82.64;98824.00;4986512;28;20414;-78
2023/01/05 05:40:46;;;;;;;0.70;0.50;;;;;;;7.91;83.55;98814.56;4985872;28;20614;-77
2023/01/05 05:43:15;;;;;;;0.20;0.17;;;;;;;7.88;82.95;98804.22;4986001;28;20677;-76
2023/01/05 05:45:44;;;;;;;0.47;0.30;;;;;;;7.88;84.36;98804.22;4987959;28;20046;-77
2023/01/05 05:48:14;;;;;;;0.57;0.20;;;;;;;7.88;84.42;98809.34;4987266;28;20133;-76
2023/01/05 05:50:44;;;;;;;0.30;0.30;;;;;;;7.86;83.83;98816.22;4984713;28;20089;-77
2023/01/05 05:53:13;;;;;;;0.20;0.20;;;;;;;7.87;84.15;98797.34;4985406;28;20066;-76
2023/01/05 05:55:41;;;;;;;0.30;0.20;;;;;;;7.85;83.94;98809.34;4985408;28;20054;-76
2023/01/05 05:58:10;;;;;;;0.50;0.30;;;;;;;7.86;83.71;98811.09;4977975;28;20485;-76
2023/01/05 06:00:39;;;;;;;0.38;0.20;;;;;;;7.89;83.22;98795.66;4987411;28;20069;-75
2023/01/05 06:03:07;;;;;;;0.40;0.20;;;;;;;7.90;83.71;98800.81;4985941;28;20529;-75
2023/01/05 06:05:38;;;;;;;0.65;0.13;;;;;;;7.95;82.49;98798.28;4988389;28;20506;-75
2023/01/05 06:08:06;;;;;;;0.90;0.20;;;;;;;7.96;81.52;98808.59;4989467;28;20664;-75
2023/01/05 06:10:35;;;;;;;0.20;0.10;;;;;;;8.00;84.64;98804.34;4988136;28;20157;-76
2023/01/05 06:13:04;;;;;;;0.10;0.10;;;;;;;7.97;82.17;98805.19;4986047;28;20077;-79
2023/01/05 06:15:32;;;;;;;0.50;0.20;;;;;;;8.01;81.60;98787.16;4988110;28;20058;-77
2023/01/05 06:18:01;;;;;;;0.22;0.10;;;;;;;8.01;81.22;98803.47;4984701;28;20065;-76
2023/01/05 06:20:30;;;;;;;0.20;0.20;;;;;;;8.06;81.16;98804.34;4985448;28;20054;-78
2023/01/05 06:23:00;;;;;;;0.32;0.20;;;;;;;8.13;80.89;98795.88;4992065;28;20043;-77
2023/01/05 06:25:29;;;;;;;1.10;0.20;;;;;;;8.15;79.68;98793.28;4977761;28;20487;-75
2023/01/05 06:27:57;;;;;;;0.40;0.25;;;;;;;8.22;81.36;98783.88;4990592;28;20418;-73
2023/01/05 06:30:26;;;;;;;0.52;0.30;;;;;;;8.23;78.75;98801.09;4986442;28;20050;-74
2023/01/05 06:32:55;;;;;;;0.10;0.10;;;;;;;8.27;78.81;98818.25;4987514;28;20059;-77
2023/01/05 06:35:24;;;;;;;0.65;0.20;;;;;;;8.36;77.76;98813.19;4986510;28;21209;-77
2023/01/05 06:37:52;;;;;;;0.65;0.38;;;;;;;8.43;79.14;98773.78;4987743;28;20054;-77
2023/01/05 06:40:22;;;;;;;0.15;0.10;;;;;;;8.50;78.03;98784.97;4990898;28;20105;-78
2023/01/05 06:42:51;;;;;;;0.40;0.20;;;;;;;8.57;77.03;98781.59;4989829;28;20129;-77
2023/01/05 06:45:20;;;;;;;1.20;0.30;;;;;;;8.63;77.52;98778.16;4991701;28;20057;-75
2023/01/05 06:47:48;;;;;;;1.35;0.22;;;;;;;8.67;76.84;98770.47;4988812;28;20046;-75
2023/01/05 06:50:17;;;;;;;0.32;0.20;;;;;;;8.70;76.19;98785.06;4988632;28;20516;-75
2023/01/05 06:52:45;;;;;;;0.50;0.32;;;;;;;8.72;76.22;98791.09;4987543;28;20448;-76
2023/01/05 06:55:14;;;;;;;0.17;0.13;;;;;;;8.76;76.41;98782.53;4988550;28;20739;-77
2023/01/05 06:57:44;;;;;;;0.40;0.28;;;;;;;8.79;76.93;98782.53;4981504;28;20788;-76
2023/01/05 07:00:14;;;;;;;1.27;0.85;;;;;;;8.79;77.14;98791.13;4987491;28;20526;-76
2023/01/05 07:02:43;;;;;;;0.28;0.22;;;;;;;8.81;76.93;98811.78;4992619;28;20628;-75
2023/01/05 07:05:11;;;;;;;0.32;0.32;;;;;;;8.78;75.58;98824.66;4991128;28;20833;-72
2023/01/05 07:07:40;;;;;;;2.03;0.38;;;;;;;8.81;76.28;98815.22;4991451;28;20462;-74
2023/01/05 07:10:10;;;;;;;0.82;0.22;;;;;;;8.85;76.87;98802.34;4989133;28;20046;-71
2023/01/05 07:12:38;;;;;;;0.52;0.20;;;;;;;8.82;76.16;98805.78;4986318;28;20054;-72
2023/01/05 07:15:10;;;;;;;0.65;0.40;;;;;;;8.86;74.77;98810.09;4988534;28;20518;-69
2023/01/05 07:17:39;;;;;;;0.40;0.20;;;;;;;8.87;76.19;98804.09;4987662;28;20056;-70
2023/01/05 07:20:09;;;;;;;0.15;0.10;;;;;;;8.98;75.88;98810.16;4986266;28;20051;-71
2023/01/05 07:22:38;;;;;;;0.60;0.30;;;;;;;8.99;75.71;98816.19;4985070;28;20046;-71
2023/01/05 07:25:07;;;;;;;0.28;0.25;;;;;;;9.00;75.80;98812.72;4987953;28;20428;-71
2023/01/05 07:27:36;;;;;;;0.40;0.28;;;;;;;9.00;74.40;98798.13;4985761;28;20050;-71
2023/01/05 07:30:05;;;;;;;0.30;0.10;;;;;;;9.01;74.05;98806.72;4988121;28;20054;-71
2023/01/05 07:32:36;;;;;;;0.98;0.43;;;;;;;9.06;71.57;98817.94;4991764;28;20189;-71
2023/01/05 07:35:06;;;;;;;0.38;0.32;;;;;;;9.11;72.94;98836.00;4988813;28;20407;-70
2023/01/05 07:37:34;;;;;;;0.45;0.30;;;;;;;9.18;71.46;98853.22;4988837;28;20467;-70
2023/01/05 07:40:03;;;;;;;0.43;0.30;;;;;;;9.25;70.82;98859.28;4986661;28;20053;-70
2023/01/05 07:42:31;;;;;;;0.82;0.32;;;;;;;9.31;70.38;98860.19;4987636;28;20058;-70
2023/01/05 07:45:00;;;;;;;0.40;0.40;;;;;;;9.37;71.40;98880.00;4987100;28;20113;-70
2023/01/05 07:47:30;;;;;;;0.20;0.10;;;;;;;9.42;69.80;98881.75;4987648;28;20058;-70
2023/01/05 07:50:00;;;;;;;1.10;0.20;;;;;;;9.49;71.19;98905.00;4986822;28;20132;-70
2023/01/05 07:52:31;;;;;;;0.63;0.30;;;;;;;9.52;70.89;98920.50;4991112;28;20045;-70
2023/01/05 07:55:00;;;;;;;0.35;0.20;;;;;;;9.56;70.89;98928.25;4985461;28;20548;-69
2023/01/05 07:57:29;;;;;;;0.28;0.20;;;;;;;9.59;70.32;98909.34;4989342;28;20062;-70
2023/01/05 07:59:57;;;;;;;0.77;0.20;;;;;;;9.63;73.69;98900.75;4983208;28;20049;-70
2023/01/05 08:02:26;;;;;;;0.77;0.47;;;;;;;9.62;72.30;98906.75;4989266;28;20046;-70
2023/01/05 08:04:55;;;;;;;1.35;0.40;;;;;;;9.65;69.06;98911.94;4987799;28;20330;-70
2023/01/05 08:07:25;;;;;;;1.45;1.08;;;;;;;9.63;73.42;98886.13;4988450;28;20435;-70
2023/01/05 08:13:58;;;;;;;0.70;0.25;;;;;;;9.79;71.45;98912.00;4990188;28;20530;-70
2023/01/05 08:15:28;;;;;;;0.98;0.20;;;;;;;9.83;71.82;98899.09;4984316;28;20778;-70
2023/01/05 08:17:56;;;;;;;0.10;0.10;;;;;;;9.83;70.03;98888.75;4983180;28;20049;-70
2023/01/05 08:20:25;;;;;;;1.42;0.30;;;;;;;9.82;71.49;98894.78;4986829;28;20726;-70
2023/01/05 08:22:56;;;;;;;0.20;0.20;;;;;;;9.85;72.54;98858.63;4987841;28;20043;-70
2023/01/05 08:25:25;;;;;;;0.98;0.50;;;;;;;9.84;72.06;98858.63;4988106;28;20041;-70
2023/01/05 08:27:53;;;;;;;0.38;0.30;;;;;;;9.80;70.20;98870.69;4988557;28;20424;-70
2023/01/05 08:30:22;;;;;;;0.38;0.30;;;;;;;9.82;70.04;98863.78;4987558;28;20050;-70
2023/01/05 08:32:51;;;;;;;0.98;0.47;;;;;;;9.83;72.56;98850.00;4988303;28;20105;-70
2023/01/05 08:35:19;;;;;;;0.70;0.38;;;;;;;9.80;70.94;98851.72;4986653;28;20132;-70
2023/01/05 08:37:48;;;;;;;1.17;0.50;;;;;;;9.80;72.24;98833.63;4989421;28;20052;-70
2023/01/05 08:40:18;;;;;;;0.45;0.30;;;;;;;9.75;74.97;98833.63;4987156;28;20050;-70
2023/01/05 08:42:47;;;;;;;0.40;0.40;;;;;;;9.72;74.06;98823.31;4988159;28;20058;-71
2023/01/05 08:45:16;;;;;;;0.75;0.50;;;;;;;9.69;75.18;98815.56;4988157;28;20074;-70
2023/01/05 08:47:45;;;;;;;2.00;0.47;;;;;;;9.67;75.65;98822.44;4987908;28;20038;-70
2023/01/05 08:50:14;;;;;;;1.25;0.80;;;;;;;9.60;77.75;98810.38;4987148;28;20062;-70
2023/01/05 08:52:42;;;;;;;1.60;0.70;;;;;;;9.53;77.21;98808.63;4987597;28;20054;-71
2023/01/05 08:55:11;;;;;;;0.90;0.57;;;;;;;9.51;77.51;98810.34;4986921;28;20134;-70
2023/01/05 08:57:41;;;;;;;0.40;0.30;;;;;;;9.48;78.65;98808.59;4979889;28;20054;-71
2023/01/05 09:00:11;;;;;;;1.27;0.43;;;;;;;9.43;79.42;98808.59;4990987;28;20490;-70
2023/01/05 09:02:40;;;;;;;1.25;0.35;;;;;;;9.40;81.93;98803.44;4989130;28;20705;-70
2023/01/05 09:05:09;;;;;;;0.73;0.40;;;;;;;9.37;82.15;98792.25;4988345;28;20081;-71
2023/01/05 09:07:38;;;;;;;0.82;0.40;;;;;;;9.37;80.00;98803.44;4987273;28;20654;-71
2023/01/05 09:10:07;;;;;;;0.30;0.22;;;;;;;9.39;76.26;98793.97;4983373;28;20137;-71
2023/01/05 09:12:36;;;;;;;1.13;0.52;;;;;;;9.40;74.16;98793.09;4987680;28;20065;-71
2023/01/05 09:15:08;;;;;;;0.40;0.38;;;;;;;9.40;75.33;98793.09;4986478;28;20169;-71
2023/01/05 09:17:37;;;;;;;0.60;0.40;;;;;;;9.39;75.20;98793.97;4989967;28;20141;-70
2023/01/05 09:20:07;;;;;;;1.23;0.50;;;;;;;9.38;74.50;98789.66;4987298;28;20053;-71
2023/01/05 09:22:36;;;;;;;0.50;0.30;;;;;;;9.35;74.98;98781.91;4992074;28;20042;-70
2023/01/05 09:25:05;;;;;;;0.40;0.30;;;;;;;9.32;75.79;98774.16;4987080;28;20132;-71
2023/01/05 09:27:35;;;;;;;0.80;0.35;;;;;;;9.30;75.67;98786.22;4985754;28;20056;-71
2023/01/05 09:30:14;;;;;;;0.30;0.30;;;;;;;9.28;74.89;98780.19;4987355;28;20053;-71
2023/01/05 09:32:43;;;;;;;0.17;0.17;;;;;;;9.28;74.82;98797.34;4986821;28;20043;-70
2023/01/05 09:35:11;;;;;;;1.15;0.30;;;;;;;9.27;74.52;98788.75;4981026;28;20042;-71
2023/01/05 09:37:40;;;;;;;0.82;0.40;;;;;;;9.27;74.60;98787.91;4986680;28;20054;-71
2023/01/05 09:40:10;;;;;;;1.35;0.50;;;;;;;9.27;75.55;98777.59;4986060;28;20555;-70
2023/01/05 09:42:44;;;;;;;1.65;0.50;;;;;;;9.24;76.18;98765.53;4985627;28;20042;-71
2023/01/05 09:45:22;;;;;;;1.27;0.30;;;;;;;9.22;75.35;98768.09;4986806;28;20134;-71
2023/01/05 09:47:51;;;;;;;0.38;0.22;;;;;;;9.20;75.98;98766.38;4982596;28;20054;-71
2023/01/05 09:50:22;;;;;;;1.17;0.65;;;;;;;9.19;76.13;98772.41;4989231;28;20170;-71
2023/01/05 09:52:55;;;;;;;1.02;0.50;;;;;;;9.15;76.35;98761.19;4987398;28;20062;-71
2023/01/05 09:55:24;;;;;;;;;;;;;;;9.13;75.50;98741.41;4988498;28;20556;-70
2023/01/05 09:57:56;;;;;;;0.70;0.25;;;;;;;9.09;75.89;98744.84;4989016;28;20282;-70
2023/01/05 10:00:29;;;;;;;0.95;0.40;;;;;;;9.05;76.67;98740.50;4990889;28;20428;-71
2023/01/05 10:03:03;;;;;;;0.65;0.40;;;;;;;9.01;76.49;98753.41;4985791;28;20072;-70
2023/01/05 10:05:34;;;;;;;0.60;0.40;;;;;;;8.97;76.83;98755.97;4984844;28;20061;-70
2023/01/05 10:08:06;;;;;;;0.20;0.20;;;;;;;8.94;77.26;98754.25;4986779;28;20062;-70
2023/01/05 10:13:01;;;;;;;0.33;0.20;;;;;;;8.92;77.15;98757.69;4983691;28;20058;-71
2023/01/05 10:13:37;;;;;;;0.43;0.30;;;;;;;8.88;76.54;98746.47;4981810;28;20102;-71
2023/01/05 10:16:15;;;;;;;0.65;0.40;;;;;;;8.86;77.22;98743.03;4982457;28;20471;-71
2023/01/05 10:18:44;;;;;;;0.20;0.20;;;;;;;8.83;76.46;98752.50;4991292;28;20050;-71
2023/01/05 10:21:22;;;;;;;1.25;0.35;;;;;;;8.80;76.91;98749.03;4983767;28;20134;-71
2023/01/05 10:24:04;;;;;;;4.00;0.40;;;;;;;8.80;77.39;98749.03;4985446;28;20055;-71
2023/01/05 10:26:43;;;;;;;0.75;0.40;;;;;;;8.77;77.94;98755.88;4986431;28;20054;-71
2023/01/05 10:29:13;;;;;;;0.55;0.30;;;;;;;8.76;77.97;98757.59;4989361;28;20132;-71
2023/01/05 10:31:55;;;;;;;0.50;0.30;;;;;;;8.77;75.71;98766.19;4986599;28;20070;-71
2023/01/05 10:34:36;;;;;;;0.40;0.30;;;;;;;8.79;76.82;98751.59;4989670;28;20050;-71
2023/01/05 10:37:19;;;;;;;0.85;0.20;;;;;;;8.79;76.08;98755.03;4982573;28;20062;-71
2023/01/05 10:40:03;;;;;;;1.92;0.40;;;;;;;8.81;76.34;98745.59;4985016;28;20058;-71
2023/01/05 10:42:45;;;;;;;0.20;0.13;;;;;;;8.83;75.63;98748.19;4975116;28;20046;-71
2023/01/05 10:45:16;;;;;;;0.47;0.30;;;;;;;8.86;75.64;98760.22;4990642;28;20129;-71
2023/01/05 10:47:48;;;;;;;0.40;0.10;;;;;;;8.87;76.18;98770.56;4988373;28;20057;-70
2023/01/05 10:50:32;;;;;;;0.45;0.20;;;;;;;8.91;73.64;98768.84;4990269;28;20050;-71
2023/01/05 10:53:05;;;;;;;0.25;0.20;;;;;;;8.94;75.35;98762.00;4983997;28;20047;-70
2023/01/05 10:55:39;;;;;;;0.20;0.20;;;;;;;8.97;74.31;98774.03;4994611;28;20590;-71
2023/01/05 10:58:22;;;;;;;0.20;0.20;;;;;;;8.98;75.03;98760.31;4990655;28;20062;-70
2023/01/05 11:00:53;;;;;;;0.82;0.20;;;;;;;9.00;74.55;98763.72;4991084;28;20043;-70
2023/01/05 11:03:29;;;;;;;0.75;0.28;;;;;;;9.05;75.22;98763.72;4991216;28;20571;-70
2023/01/05 11:05:58;;;;;;;0.35;0.20;;;;;;;9.11;75.32;98762.03;4980964;28;20066;-71
2023/01/05 11:08:29;;;;;;;0.32;0.20;;;;;;;9.17;74.48;98745.72;4981584;28;20050;-70
2023/01/05 11:11:00;;;;;;;0.22;0.22;;;;;;;9.21;72.75;98748.31;4991095;28;20042;-71
2023/01/05 11:13:34;;;;;;;0.73;0.15;;;;;;;9.26;72.78;98748.34;4979731;28;20050;-70
2023/01/05 11:16:10;;;;;;;0.30;0.20;;;;;;;9.29;72.89;98750.91;4988553;28;20125;-70
2023/01/05 11:18:48;;;;;;;0.50;0.32;;;;;;;9.31;72.50;98758.69;4989307;28;20054;-70
2023/01/05 11:21:18;;;;;;;0.52;0.17;;;;;;;9.36;71.84;98755.22;4989566;28;20073;-71
2023/01/05 11:23:48;;;;;;;0.30;0.20;;;;;;;9.42;72.23;98755.25;4990350;28;20046;-71
2023/01/05 11:26:31;;;;;;;0.40;0.13;;;;;;;9.51;72.01;98748.41;4989086;28;20046;-71
2023/01/05 11:29:14;;;;;;;1.10;0.17;;;;;;;9.55;70.61;98735.50;4991489;28;20054;-71
2023/01/05 11:31:45;;;;;;;;;;;;;;;9.62;71.50;98726.00;4993553;28;20069;-70
2023/01/05 11:34:30;;;;;;;0.10;0.10;;;;;;;9.68;70.18;98720.00;4989572;28;19921;-70
2023/01/05 11:37:00;;;;;;;0.28;0.10;;;;;;;9.77;71.27;98714.84;4991781;28;20050;-71
2023/01/05 11:39:31;;;;;;;0.60;0.20;;;;;;;9.84;68.82;98721.72;4989222;28;20046;-71
2023/01/05 11:42:14;;;;;;;0.20;0.05;;;;;;;9.95;68.55;98734.63;4987877;28;20699;-71
2023/01/05 11:44:46;;;;;;;0.10;0.10;;;;;;;10.00;68.26;98743.25;4985339;28;20061;-71
2023/01/05 11:47:24;;;;;;;0.10;0.10;;;;;;;10.12;66.15;98747.53;4986522;28;20050;-71
2023/01/05 11:50:05;;;;;;;1.63;0.17;;;;;;;10.21;67.49;98748.38;4993377;28;20478;-71
2023/01/05 11:52:39;;;;;;;0.10;0.10;;;;;;;10.25;65.73;98742.34;4991527;28;20436;-71
2023/01/05 11:55:34;;;;;;;0.00;0.00;;;;;;;10.27;65.84;98727.69;4989632;28;20109;-70
2023/01/05 11:58:26;;;;;;;0.00;0.00;;;;;;;10.32;65.90;98730.31;4989315;28;20053;-71
2023/01/05 12:01:27;;;;;;;0.10;0.10;;;;;;;10.35;65.77;98729.44;4990323;28;20050;-71
2023/01/05 12:04:14;;;;;;;0.03;0.03;;;;;;;10.37;64.95;98725.13;4980230;28;20070;-71
2023/01/05 12:07:13;;;;;;;0.20;0.10;;;;;;;10.37;64.02;98719.97;4985433;28;20613;-71
2023/01/05 12:09:46;;;;;;;0.40;0.20;;;;;;;10.40;64.63;98722.53;4982949;28;20054;-70
2023/01/05 12:12:36;;;;;;;0.20;0.10;;;;;;;10.39;62.42;98723.41;4974352;28;20063;-70
2023/01/05 12:15:32;;;;;;;0.93;0.20;;;;;;;10.40;63.98;98736.34;4965756;28;20046;-70
2023/01/05 12:18:15;;;;;;;0.10;0.10;;;;;;;10.45;64.88;98733.75;4968841;28;20105;-70
2023/01/05 12:21:03;;;;;;;0.25;0.10;;;;;;;10.45;63.10;98729.44;4968853;28;20066;-70
2023/01/05 12:23:54;;;;;;;0.40;0.20;;;;;;;10.46;63.03;98717.34;4972326;28;20131;-71
2023/01/05 12:26:28;;;;;;;0.10;0.10;;;;;;;10.45;63.20;98710.47;4972614;28;20146;-71
2023/01/05 12:29:19;;;;;;;0.10;0.10;;;;;;;10.46;63.57;98699.25;4976172;28;20050;-71
2023/01/05 12:32:06;;;;;;;0.17;0.00;;;;;;;10.46;61.95;98697.53;4970877;28;20121;-71
2023/01/05 12:35:02;;;;;;;0.20;0.10;;;;;;;10.50;62.00;98700.13;4969788;28;20406;-71